LIM260 LICC-DTTA
Flight info
| Callsign | LIM260 |
|---|---|
| Flight time | N/A |
| Altitude | 29000 |
| Route | LIBRO DCT ADEXI/N0317F300 DCT ADRIL |
| Aircraft | TBM8/L-SDFGRWY/S |
Departure
| Time | 2026-05-01 07:36 |
|---|---|
| Airport | Catania-Fontanarossa Airport (LICC) |
Arrival
| Time | N/A |
|---|---|
| Airport | Tunis Carthage International Airport (DTTA) |
| Time | Latitude | Longitude | Altitude | Speed | Heading |
|---|---|---|---|---|---|
| 2026-05-01 07:25 | 37.46980 | 15.05881 | 26 ft | 0 kts | 160° |
| 2026-05-01 07:30 | 37.46993 | 15.05878 | 26 ft | 2 kts | 193° |
| 2026-05-01 07:30 | 37.47000 | 15.05892 | 28 ft | 1 kts | 273° |
| 2026-05-01 07:30 | 37.47000 | 15.05893 | 28 ft | 0 kts | 276° |
| 2026-05-01 07:33 | 37.47002 | 15.05879 | 26 ft | 7 kts | 284° |
| 2026-05-01 07:33 | 37.47019 | 15.05807 | 26 ft | 8 kts | 283° |
| 2026-05-01 07:33 | 37.46989 | 15.05706 | 26 ft | 6 kts | 232° |
| 2026-05-01 07:34 | 37.46927 | 15.05634 | 26 ft | 12 kts | 222° |
| 2026-05-01 07:34 | 37.46791 | 15.05484 | 26 ft | 2 kts | 214° |
| 2026-05-01 07:34 | 37.46790 | 15.05483 | 26 ft | 0 kts | 214° |
| 2026-05-01 07:35 | 37.46781 | 15.05476 | 26 ft | 10 kts | 204° |
| 2026-05-01 07:35 | 37.46666 | 15.05469 | 28 ft | 18 kts | 180° |
| 2026-05-01 07:35 | 37.46603 | 15.05493 | 29 ft | 10 kts | 133° |
| 2026-05-01 07:35 | 37.46600 | 15.05680 | 29 ft | 44 kts | 83° |
| 2026-05-01 07:36 | 37.46653 | 15.06331 | 31 ft | 102 kts | 83° |
| 2026-05-01 07:36 | 37.46728 | 15.07363 | 175 ft | 132 kts | 85° |
| 2026-05-01 07:36 | 37.46800 | 15.08627 | 450 ft | 156 kts | 85° |
| 2026-05-01 07:36 | 37.46978 | 15.10043 | 810 ft | 171 kts | 80° |
| 2026-05-01 07:37 | 37.47402 | 15.13081 | 1598 ft | 181 kts | 80° |
| 2026-05-01 07:37 | 37.47748 | 15.14617 | 1986 ft | 187 kts | 61° |
| 2026-05-01 07:37 | 37.48759 | 15.15645 | 2361 ft | 194 kts | 21° |
| 2026-05-01 07:38 | 37.50094 | 15.15605 | 2747 ft | 197 kts | 340° |
| 2026-05-01 07:38 | 37.51118 | 15.14485 | 3130 ft | 200 kts | 299° |
| 2026-05-01 07:38 | 37.51298 | 15.11083 | 3887 ft | 195 kts | 273° |
| 2026-05-01 07:39 | 37.51512 | 15.09413 | 4269 ft | 192 kts | 284° |
| 2026-05-01 07:39 | 37.51821 | 15.07784 | 4655 ft | 190 kts | 285° |
| 2026-05-01 07:39 | 37.52372 | 15.04550 | 5406 ft | 187 kts | 285° |
| 2026-05-01 07:40 | 37.52646 | 15.02961 | 5787 ft | 187 kts | 285° |
| 2026-05-01 07:40 | 37.52923 | 15.01338 | 6171 ft | 190 kts | 285° |
| 2026-05-01 07:40 | 37.53202 | 14.99707 | 6542 ft | 191 kts | 285° |
| 2026-05-01 07:40 | 37.53480 | 14.98070 | 6911 ft | 190 kts | 285° |
| 2026-05-01 07:41 | 37.53756 | 14.96446 | 7274 ft | 189 kts | 285° |
| 2026-05-01 07:41 | 37.54030 | 14.94831 | 7641 ft | 188 kts | 285° |
| 2026-05-01 07:41 | 37.54575 | 14.91627 | 8401 ft | 186 kts | 285° |
| 2026-05-01 07:42 | 37.54845 | 14.90025 | 8711 ft | 190 kts | 285° |
| 2026-05-01 07:42 | 37.55125 | 14.88384 | 8973 ft | 194 kts | 284° |
| 2026-05-01 07:42 | 37.55407 | 14.86712 | 9233 ft | 196 kts | 284° |
| 2026-05-01 07:42 | 37.55693 | 14.85021 | 9495 ft | 198 kts | 284° |
| 2026-05-01 07:43 | 37.55976 | 14.83342 | 9756 ft | 199 kts | 284° |
| 2026-05-01 07:43 | 37.56268 | 14.81617 | 10025 ft | 199 kts | 284° |
| 2026-05-01 07:43 | 37.56846 | 14.78190 | 10499 ft | 200 kts | 284° |
| 2026-05-01 07:44 | 37.57420 | 14.74769 | 10976 ft | 201 kts | 284° |
| 2026-05-01 07:44 | 37.58001 | 14.71313 | 11469 ft | 201 kts | 284° |
| 2026-05-01 07:45 | 37.58291 | 14.69586 | 11718 ft | 201 kts | 284° |
| 2026-05-01 07:45 | 37.58580 | 14.67857 | 11968 ft | 202 kts | 284° |
| 2026-05-01 07:45 | 37.58869 | 14.66129 | 12217 ft | 202 kts | 284° |
| 2026-05-01 07:45 | 37.59159 | 14.64397 | 12470 ft | 202 kts | 284° |
| 2026-05-01 07:46 | 37.59447 | 14.62667 | 12728 ft | 202 kts | 285° |
| 2026-05-01 07:46 | 37.59738 | 14.60930 | 12983 ft | 202 kts | 284° |
| 2026-05-01 07:46 | 37.60314 | 14.57461 | 13507 ft | 202 kts | 285° |
| 2026-05-01 07:47 | 37.60605 | 14.55722 | 13774 ft | 203 kts | 285° |
| 2026-05-01 07:47 | 37.60896 | 14.53982 | 14027 ft | 203 kts | 285° |
| 2026-05-01 07:47 | 37.61184 | 14.52237 | 14260 ft | 203 kts | 285° |
| 2026-05-01 07:47 | 37.61474 | 14.50490 | 14499 ft | 204 kts | 284° |
| 2026-05-01 07:48 | 37.62037 | 14.46992 | 14983 ft | 205 kts | 281° |
| 2026-05-01 07:48 | 37.61913 | 14.45183 | 15211 ft | 211 kts | 261° |
| 2026-05-01 07:48 | 37.61554 | 14.43399 | 15469 ft | 209 kts | 262° |
| 2026-05-01 07:49 | 37.61236 | 14.41612 | 15710 ft | 208 kts | 263° |
| 2026-05-01 07:49 | 37.60578 | 14.38046 | 16210 ft | 210 kts | 263° |
| 2026-05-01 07:49 | 37.60244 | 14.36249 | 16460 ft | 211 kts | 263° |
| 2026-05-01 07:50 | 37.59909 | 14.34446 | 16716 ft | 212 kts | 263° |
| 2026-05-01 07:50 | 37.59235 | 14.30825 | 17230 ft | 213 kts | 263° |
| 2026-05-01 07:50 | 37.58896 | 14.29008 | 17485 ft | 213 kts | 263° |
| 2026-05-01 07:51 | 37.58550 | 14.27194 | 17751 ft | 214 kts | 262° |
| 2026-05-01 07:51 | 37.58174 | 14.25374 | 18009 ft | 214 kts | 261° |
| 2026-05-01 07:51 | 37.57793 | 14.23556 | 18285 ft | 215 kts | 261° |
| 2026-05-01 07:52 | 37.57041 | 14.19903 | 18762 ft | 216 kts | 262° |
| 2026-05-01 07:52 | 37.56663 | 14.18079 | 18995 ft | 215 kts | 261° |
| 2026-05-01 07:52 | 37.56286 | 14.16258 | 19229 ft | 215 kts | 262° |
| 2026-05-01 07:53 | 37.55529 | 14.12607 | 19704 ft | 215 kts | 262° |
| 2026-05-01 07:53 | 37.55150 | 14.10781 | 19944 ft | 215 kts | 262° |
| 2026-05-01 07:53 | 37.54771 | 14.08960 | 20185 ft | 215 kts | 262° |
| 2026-05-01 07:53 | 37.54392 | 14.07140 | 20426 ft | 214 kts | 262° |
| 2026-05-01 07:54 | 37.53638 | 14.03516 | 20921 ft | 214 kts | 262° |
| 2026-05-01 07:55 | 37.52507 | 13.98097 | 21670 ft | 213 kts | 262° |
| 2026-05-01 07:55 | 37.51755 | 13.94500 | 22185 ft | 212 kts | 262° |
| 2026-05-01 07:56 | 37.50629 | 13.89123 | 22969 ft | 211 kts | 262° |
| 2026-05-01 07:56 | 37.49878 | 13.85542 | 23504 ft | 211 kts | 262° |
| 2026-05-01 07:57 | 37.49502 | 13.83758 | 23765 ft | 211 kts | 262° |
| 2026-05-01 07:57 | 37.48755 | 13.80213 | 24209 ft | 208 kts | 262° |
| 2026-05-01 07:58 | 37.48022 | 13.76723 | 24669 ft | 207 kts | 263° |
| 2026-05-01 07:58 | 37.47276 | 13.73203 | 25132 ft | 206 kts | 263° |
| 2026-05-01 07:59 | 37.46543 | 13.69733 | 25601 ft | 207 kts | 263° |
| 2026-05-01 07:59 | 37.45802 | 13.66236 | 26079 ft | 207 kts | 263° |
| 2026-05-01 08:00 | 37.44326 | 13.59282 | 27067 ft | 205 kts | 263° |
| 2026-05-01 08:01 | 37.43226 | 13.54109 | 27823 ft | 202 kts | 263° |
| 2026-05-01 08:01 | 37.42862 | 13.52409 | 28073 ft | 201 kts | 263° |
| 2026-05-01 08:01 | 37.42499 | 13.50714 | 28341 ft | 201 kts | 263° |
| 2026-05-01 08:02 | 37.41778 | 13.47333 | 28870 ft | 199 kts | 263° |
| 2026-05-01 08:02 | 37.41419 | 13.45653 | 29125 ft | 199 kts | 263° |